(°C)
21°
22°
22°
23°
23°
23°
22°
(°C)
17°
17°
18°
19°
19°
18°
18°
WZW
WZW
WZW
ZW
ZZW
ZZW
ZZW
(km/u)
16-29
19-33
19-36
20-38
20-39
19-37
18-33
(mm)
0
0
0
0
0
0
0
(%)
11
12
16
20
24
25
26

Zonverhoging

/ 66.5°
sun-icon
UV 13
05:36
20:41
Wassende maan (48°)
09:45
23:49

METAR voor Walden (K33V)

Tijd Voorwaarden Temperatuur/
Dauwpunt
Wind Zicht Weer Wolken Luchtdruk Wijzigen Ruw
VFR 21°C / 6°C 230º 8kt >10km - Scattered Clouds 6000ft
Scattered Clouds 7500ft
- K33V 031735Z AUTO 23008KT 10SM SCT060 SCT075 21/06 A3027 RMK AO1
VFR 20°C / 6°C variable 0kt >10km - Scattered Clouds 6000ft
Scattered Clouds 7500ft
- K33V 031715Z AUTO 00000KT 10SM SCT060 SCT075 20/06 A3027 RMK AO1
VFR 21°C / 6°C variable 0kt >10km - Scattered Clouds 6000ft - K33V 031655Z AUTO 00000KT 10SM SCT060 21/06 A3027 RMK AO1
VFR 21°C / 7°C 160º 3kt >10km - Clear - K33V 031635Z AUTO 16003KT 10SM CLR 21/07 A3027 RMK AO1
VFR 20°C / 7°C 100º 3kt >10km - Clear - K33V 031615Z AUTO 10003KT 10SM CLR 20/07 A3027 RMK AO1
VFR 19°C / 8°C 140º 4kt >10km - Clear - K33V 031555Z AUTO 14004KT 10SM CLR 19/08 A3027 RMK AO1
VFR 18°C / 8°C 150º 3kt >10km - Clear - K33V 031535Z AUTO 15003KT 10SM CLR 18/08 A3028 RMK AO1
VFR 17°C / 7°C 170º 4kt >10km - Clear - K33V 031515Z AUTO 17004KT 10SM CLR 17/07 A3028 RMK AO1
VFR 17°C / 7°C 160º 5kt >10km - Clear - K33V 031455Z AUTO 16005KT 10SM CLR 17/07 A3028 RMK AO1
VFR 16°C / 7°C 140º 4kt >10km - Clear - K33V 031435Z AUTO 14004KT 10SM CLR 16/07 A3029 RMK AO1
VFR 15°C / 7°C 120º 5kt >10km - Clear - K33V 031415Z AUTO 12005KT 10SM CLR 15/07 A3029 RMK AO1
VFR 13°C / 6°C 130º 3kt >10km - Clear - K33V 031355Z AUTO 13003KT 10SM CLR 13/06 A3029 RMK AO1
VFR 12°C / 6°C 120º 3kt >10km - Clear - K33V 031335Z AUTO 12003KT 10SM CLR 12/06 A3029 RMK AO1
VFR 10°C / 6°C variable 0kt >10km - Clear - K33V 031315Z AUTO 00000KT 10SM CLR 10/06 A3029 RMK AO1
VFR 8°C / 6°C 130º 4kt >10km - Clear - K33V 031255Z AUTO 13004KT 10SM CLR 08/06 A3028 RMK AO1
VFR 7°C / 5°C 120º 6kt >10km - Clear - K33V 031235Z AUTO 12006KT 10SM CLR 07/05 A3027 RMK AO1
VFR 6°C / 4°C 140º 6kt >10km - Clear - K33V 031215Z AUTO 14006KT 10SM CLR 06/04 A3027 RMK AO1
VFR 6°C / 4°C variable 0kt >10km - Clear - K33V 031155Z AUTO 00000KT 10SM CLR 06/04 A3027 RMK AO1
VFR 6°C / 5°C 120º 7kt >10km - Clear - K33V 031135Z AUTO 12007KT 10SM CLR 06/05 A3027 RMK AO1
VFR 6°C / 5°C 130º 8kt >10km - Clear - K33V 031115Z AUTO 13008KT 10SM CLR 06/05 A3027 RMK AO1
VFR 6°C / 5°C 140º 7kt >10km - Clear - K33V 031055Z AUTO 14007KT 10SM CLR 06/05 A3027 RMK AO1
VFR 7°C / 5°C 130º 7kt >10km - Clear - K33V 031035Z AUTO 13007KT 10SM CLR 07/05 A3027 RMK AO1
VFR 7°C / 5°C 130º 6kt >10km - Clear - K33V 031015Z AUTO 13006KT 10SM CLR 07/05 A3027 RMK AO1
VFR 8°C / 5°C 130º 4kt >10km - Clear - K33V 030955Z AUTO 13004KT 10SM CLR 08/05 A3027 RMK AO1

VFR

21°C / 6°C

[Meer]
Wind 230º 8kt
Zicht >10km
Weer -
Wolken Scattered Clouds 6000ft
Scattered Clouds 7500ft
Luchtdruk
Wijzigen -
Ruw K33V 031735Z AUTO 23008KT 10SM SCT060 SCT075 21/06 A3027 RMK AO1

VFR

20°C / 6°C

[Meer]
Wind variable 0kt
Zicht >10km
Weer -
Wolken Scattered Clouds 6000ft
Scattered Clouds 7500ft
Luchtdruk
Wijzigen -
Ruw K33V 031715Z AUTO 00000KT 10SM SCT060 SCT075 20/06 A3027 RMK AO1

VFR

21°C / 6°C

[Meer]
Wind variable 0kt
Zicht >10km
Weer -
Wolken Scattered Clouds 6000ft
Luchtdruk
Wijzigen -
Ruw K33V 031655Z AUTO 00000KT 10SM SCT060 21/06 A3027 RMK AO1

VFR

21°C / 7°C

[Meer]
Wind 160º 3kt
Zicht >10km
Weer -
Wolken Clear
Luchtdruk
Wijzigen -
Ruw K33V 031635Z AUTO 16003KT 10SM CLR 21/07 A3027 RMK AO1

VFR

20°C / 7°C

[Meer]
Wind 100º 3kt
Zicht >10km
Weer -
Wolken Clear
Luchtdruk
Wijzigen -
Ruw K33V 031615Z AUTO 10003KT 10SM CLR 20/07 A3027 RMK AO1

VFR

19°C / 8°C

[Meer]
Wind 140º 4kt
Zicht >10km
Weer -
Wolken Clear
Luchtdruk
Wijzigen -
Ruw K33V 031555Z AUTO 14004KT 10SM CLR 19/08 A3027 RMK AO1

VFR

18°C / 8°C

[Meer]
Wind 150º 3kt
Zicht >10km
Weer -
Wolken Clear
Luchtdruk
Wijzigen -
Ruw K33V 031535Z AUTO 15003KT 10SM CLR 18/08 A3028 RMK AO1

VFR

17°C / 7°C

[Meer]
Wind 170º 4kt
Zicht >10km
Weer -
Wolken Clear
Luchtdruk
Wijzigen -
Ruw K33V 031515Z AUTO 17004KT 10SM CLR 17/07 A3028 RMK AO1

VFR

17°C / 7°C

[Meer]
Wind 160º 5kt
Zicht >10km
Weer -
Wolken Clear
Luchtdruk
Wijzigen -
Ruw K33V 031455Z AUTO 16005KT 10SM CLR 17/07 A3028 RMK AO1

VFR

16°C / 7°C

[Meer]
Wind 140º 4kt
Zicht >10km
Weer -
Wolken Clear
Luchtdruk
Wijzigen -
Ruw K33V 031435Z AUTO 14004KT 10SM CLR 16/07 A3029 RMK AO1

VFR

15°C / 7°C

[Meer]
Wind 120º 5kt
Zicht >10km
Weer -
Wolken Clear
Luchtdruk
Wijzigen -
Ruw K33V 031415Z AUTO 12005KT 10SM CLR 15/07 A3029 RMK AO1

VFR

13°C / 6°C

[Meer]
Wind 130º 3kt
Zicht >10km
Weer -
Wolken Clear
Luchtdruk
Wijzigen -
Ruw K33V 031355Z AUTO 13003KT 10SM CLR 13/06 A3029 RMK AO1

VFR

12°C / 6°C

[Meer]
Wind 120º 3kt
Zicht >10km
Weer -
Wolken Clear
Luchtdruk
Wijzigen -
Ruw K33V 031335Z AUTO 12003KT 10SM CLR 12/06 A3029 RMK AO1

VFR

10°C / 6°C

[Meer]
Wind variable 0kt
Zicht >10km
Weer -
Wolken Clear
Luchtdruk
Wijzigen -
Ruw K33V 031315Z AUTO 00000KT 10SM CLR 10/06 A3029 RMK AO1

VFR

8°C / 6°C

[Meer]
Wind 130º 4kt
Zicht >10km
Weer -
Wolken Clear
Luchtdruk
Wijzigen -
Ruw K33V 031255Z AUTO 13004KT 10SM CLR 08/06 A3028 RMK AO1

VFR

7°C / 5°C

[Meer]
Wind 120º 6kt
Zicht >10km
Weer -
Wolken Clear
Luchtdruk
Wijzigen -
Ruw K33V 031235Z AUTO 12006KT 10SM CLR 07/05 A3027 RMK AO1

VFR

6°C / 4°C

[Meer]
Wind 140º 6kt
Zicht >10km
Weer -
Wolken Clear
Luchtdruk
Wijzigen -
Ruw K33V 031215Z AUTO 14006KT 10SM CLR 06/04 A3027 RMK AO1

VFR

6°C / 4°C

[Meer]
Wind variable 0kt
Zicht >10km
Weer -
Wolken Clear
Luchtdruk
Wijzigen -
Ruw K33V 031155Z AUTO 00000KT 10SM CLR 06/04 A3027 RMK AO1

VFR

6°C / 5°C

[Meer]
Wind 120º 7kt
Zicht >10km
Weer -
Wolken Clear
Luchtdruk
Wijzigen -
Ruw K33V 031135Z AUTO 12007KT 10SM CLR 06/05 A3027 RMK AO1

VFR

6°C / 5°C

[Meer]
Wind 130º 8kt
Zicht >10km
Weer -
Wolken Clear
Luchtdruk
Wijzigen -
Ruw K33V 031115Z AUTO 13008KT 10SM CLR 06/05 A3027 RMK AO1

VFR

6°C / 5°C

[Meer]
Wind 140º 7kt
Zicht >10km
Weer -
Wolken Clear
Luchtdruk
Wijzigen -
Ruw K33V 031055Z AUTO 14007KT 10SM CLR 06/05 A3027 RMK AO1

VFR

7°C / 5°C

[Meer]
Wind 130º 7kt
Zicht >10km
Weer -
Wolken Clear
Luchtdruk
Wijzigen -
Ruw K33V 031035Z AUTO 13007KT 10SM CLR 07/05 A3027 RMK AO1

VFR

7°C / 5°C

[Meer]
Wind 130º 6kt
Zicht >10km
Weer -
Wolken Clear
Luchtdruk
Wijzigen -
Ruw K33V 031015Z AUTO 13006KT 10SM CLR 07/05 A3027 RMK AO1

VFR

8°C / 5°C

[Meer]
Wind 130º 4kt
Zicht >10km
Weer -
Wolken Clear
Luchtdruk
Wijzigen -
Ruw K33V 030955Z AUTO 13004KT 10SM CLR 08/05 A3027 RMK AO1

Radar en neerslag nowcast voor Walden

Motregen
Licht
Matig
Zwaar
Zeer zwaar
Hagel

De locatiemarkering is op Walden geplaatst . Deze animation toont de neerslag radar van het afgelopen uur, maar ook de 1h verwachting. Motregen of lichte sneeuwval kan onzichtbaar zijn voor de radar. De neerslagintensiteit wordt met kleuren weergegeven, van lichtblauw tot oranje.

Huidige satellietbeelden voor Walden, Verenigde Staten

De locatiemarkering is op Walden geplaatst. [Meer]

Het realtime satellietbeeld combineert zichtbaar licht overdag met infraroodstraling 's nachts. 's Nachts is het beeld niet donker, omdat infraroodstraling temperatuurverschillen kan waarnemen. Helaas zijn lage wolken en mist moeilijk te onderscheiden van grondtemperaturen en kunnen dus 's nachts bijna onzichtbaar zijn. Meteosat-satellietbeelden voor Europa worden elke 5 minuten in real time bijgewerkt. De beelden van GOES-16/GOES-17 (Noord- en Zuid-Amerika) en Himawari (Azië) worden om de 10 minuten bijgewerkt.

Terug naar boven